Austin (LCRA Redbud)'s Hourly Summary for Monday, May 14, 2018
Hour Temp
(f)
RH
(%)
Solar Rad.
(MJ/m2)
Rainfall
(in)
Wind
(mph)
5/14/2018 12:00 AM 78 73 0 0 0.4
5/14/2018 1:00 AM 76 77 0 0 0.4
5/14/2018 2:00 AM 75 78 0 0 0.4
5/14/2018 3:00 AM 75 79 0 0 0.4
5/14/2018 4:00 AM 74 79 0 0 0.4
5/14/2018 5:00 AM 74 81 0 0 0.4
5/14/2018 6:00 AM 74 81 0 0 0.4
5/14/2018 7:00 AM 74 84 0.02 0 0.4
5/14/2018 8:00 AM 75 84 0.25 0 0.4
5/14/2018 9:00 AM 77 80 0.43 0 0.4
5/14/2018 10:00 AM 79 72 0.84 0 0.4
5/14/2018 11:00 AM 82 64 1.43 0 0.4
5/14/2018 12:00 PM 84 57 2.43 0 0.4
5/14/2018 1:00 PM 85 54 2.71 0 0.4
5/14/2018 2:00 PM 86 51 2.82 0 0.4
5/14/2018 3:00 PM 88 49 2.89 0 0.4
5/14/2018 4:00 PM 89 45 2.57 0 0.4
5/14/2018 5:00 PM 89 45 2.38 0 0.4
5/14/2018 6:00 PM 89 46 1.45 0 0.4
5/14/2018 7:00 PM 87 46 0.69 0 0.4
5/14/2018 8:00 PM 86 49 0.15 0 0.4
5/14/2018 9:00 PM 83 52 0 0 0.4
5/14/2018 10:00 PM 82 57 0 0 0.4
5/14/2018 11:00 PM 81 59 0 0 0.4
Data Summary 80 64 21.06 0.00 0.40